createdAt,value
2018-09-21T00:01:09.601Z,18.80
2018-09-21T00:03:40.294Z,18.70
2018-09-21T00:06:10.984Z,18.80
2018-09-21T00:08:41.653Z,18.80
2018-09-21T00:11:12.341Z,18.80
2018-09-21T00:13:43.021Z,18.80
2018-09-21T00:16:13.713Z,18.90
2018-09-21T00:18:44.368Z,18.80
2018-09-21T00:21:15.178Z,18.80
2018-09-21T00:23:45.829Z,18.90
2018-09-21T00:26:16.525Z,18.80
2018-09-21T00:28:47.221Z,18.80
2018-09-21T00:31:17.928Z,18.80
2018-09-21T00:33:48.593Z,18.90
2018-09-21T00:36:19.657Z,18.80
2018-09-21T00:38:50.325Z,18.90
2018-09-21T00:41:21.037Z,18.80
2018-09-21T00:43:51.731Z,18.80
2018-09-21T00:46:22.776Z,18.80
2018-09-21T00:48:53.433Z,18.80
2018-09-21T00:51:24.133Z,18.80
2018-09-21T00:53:54.816Z,18.90
2018-09-21T00:56:25.532Z,18.80
2018-09-21T00:58:56.209Z,18.80
2018-09-21T01:01:26.915Z,18.90
2018-09-21T01:03:57.593Z,18.90
2018-09-21T01:06:28.280Z,18.80
2018-09-21T01:08:58.987Z,18.80
2018-09-21T01:11:29.641Z,18.90
2018-09-21T01:14:00.345Z,18.80
2018-09-21T01:16:31.014Z,18.80
2018-09-21T01:19:01.708Z,18.80
2018-09-21T01:21:32.367Z,18.80
2018-09-21T01:24:03.316Z,18.70
2018-09-21T01:26:34.030Z,18.80
2018-09-21T01:29:05.101Z,18.70
2018-09-21T01:31:35.829Z,18.70
2018-09-21T01:34:06.889Z,18.70
2018-09-21T01:36:37.578Z,18.70
2018-09-21T01:39:09.417Z,18.70
2018-09-21T01:41:40.113Z,18.70
2018-09-21T01:44:10.771Z,18.70
2018-09-21T01:46:41.501Z,18.70
2018-09-21T01:49:12.182Z,18.70
2018-09-21T01:51:42.889Z,18.70
2018-09-21T01:54:13.585Z,18.70
2018-09-21T01:56:44.269Z,18.60
2018-09-21T01:59:14.972Z,18.60
2018-09-21T02:01:45.853Z,18.60
2018-09-21T02:04:16.733Z,18.60
2018-09-21T02:06:47.445Z,18.50
2018-09-21T02:09:18.113Z,18.50
2018-09-21T02:11:48.845Z,18.40
2018-09-21T02:14:19.501Z,18.40
2018-09-21T02:16:50.644Z,18.40
2018-09-21T02:19:21.652Z,18.40
2018-09-21T02:21:52.579Z,18.40
2018-09-21T02:24:23.544Z,18.40
2018-09-21T02:26:54.236Z,18.30
2018-09-21T02:29:24.962Z,18.30
2018-09-21T02:31:55.657Z,18.30
2018-09-21T02:34:26.419Z,18.30
2018-09-21T02:36:57.113Z,18.20
2018-09-21T02:39:27.776Z,18.20
2018-09-21T02:41:58.668Z,18.20
2018-09-21T02:44:29.335Z,18.10
2018-09-21T02:47:00.024Z,18.10
2018-09-21T02:49:30.729Z,18.20
2018-09-21T02:52:01.431Z,18.10
2018-09-21T02:54:32.111Z,18.00
2018-09-21T02:57:02.845Z,18.00
2018-09-21T02:59:33.536Z,18.00
2018-09-21T03:02:04.221Z,18.00
2018-09-21T03:04:39.124Z,17.90
2018-09-21T03:07:09.781Z,17.90
2018-09-21T03:09:40.469Z,17.90
2018-09-21T03:12:11.132Z,17.90
2018-09-21T03:14:41.823Z,17.90
2018-09-21T03:17:12.516Z,17.90
2018-09-21T03:19:43.200Z,17.90
2018-09-21T03:22:13.891Z,17.90
2018-09-21T03:24:44.571Z,17.90
2018-09-21T03:27:15.252Z,17.90
2018-09-21T03:29:45.969Z,17.90
2018-09-21T03:32:16.678Z,17.90
2018-09-21T03:34:47.395Z,17.90
2018-09-21T03:37:18.264Z,17.90
2018-09-21T03:39:48.953Z,17.90
2018-09-21T03:42:19.626Z,18.00
2018-09-21T03:44:50.318Z,18.00
2018-09-21T03:47:21.314Z,18.00
2018-09-21T03:49:52.361Z,18.00
2018-09-21T03:52:23.082Z,18.10
2018-09-21T03:54:53.916Z,18.10
2018-09-21T03:57:24.589Z,18.20
2018-09-21T03:59:55.279Z,18.30
2018-09-21T04:02:25.978Z,18.40
2018-09-21T04:04:56.924Z,18.60
2018-09-21T04:07:27.769Z,18.70
2018-09-21T04:09:58.455Z,18.80
2018-09-21T04:12:29.142Z,19.00
2018-09-21T04:14:59.840Z,19.10
2018-09-21T04:17:30.501Z,19.20
2018-09-21T04:20:01.194Z,19.30
2018-09-21T04:22:32.207Z,19.40
2018-09-21T04:25:03.733Z,19.50
2018-09-21T04:27:34.438Z,19.60
2018-09-21T04:30:05.339Z,19.70
2018-09-21T04:32:36.024Z,19.80
2018-09-21T04:35:06.742Z,19.90
2018-09-21T04:37:37.402Z,20.00
2018-09-21T04:40:08.472Z,20.10
2018-09-21T04:42:39.366Z,20.20
2018-09-21T04:45:10.033Z,20.30
2018-09-21T04:47:41.041Z,20.50
2018-09-21T04:50:11.974Z,20.60
2018-09-21T04:52:42.662Z,20.60
2018-09-21T04:55:13.356Z,20.80
2018-09-21T04:57:44.055Z,20.80
2018-09-21T05:00:14.741Z,20.90
2018-09-21T05:02:45.433Z,20.90
2018-09-21T05:05:16.111Z,21.00
2018-09-21T05:07:46.491Z,21.00
2018-09-21T05:10:19.164Z,21.00
2018-09-21T05:12:50.369Z,21.10
2018-09-21T05:15:21.031Z,21.10
2018-09-21T05:17:51.888Z,21.10
2018-09-21T05:20:22.584Z,21.20
2018-09-21T05:22:53.245Z,21.20
2018-09-21T05:25:23.959Z,21.20
2018-09-21T05:27:54.661Z,21.10
2018-09-21T05:30:25.352Z,21.10
2018-09-21T05:32:56.008Z,21.20
2018-09-21T05:35:26.721Z,21.20
2018-09-21T05:37:57.402Z,21.20
2018-09-21T05:40:28.168Z,21.20
2018-09-21T05:42:58.885Z,21.20
2018-09-21T05:45:29.301Z,21.20
2018-09-21T05:47:59.969Z,21.20
2018-09-21T05:50:30.376Z,21.20
2018-09-21T05:53:00.747Z,21.30
2018-09-21T05:55:31.148Z,21.20
2018-09-21T05:58:02.181Z,21.30
2018-09-21T06:00:32.626Z,21.20
2018-09-21T06:03:03.013Z,21.20
2018-09-21T06:05:33.706Z,21.30
2018-09-21T06:08:04.167Z,21.30
2018-09-21T06:10:35.050Z,21.30
2018-09-21T06:13:05.445Z,21.30
2018-09-21T06:15:35.845Z,21.30
2018-09-21T06:18:06.554Z,21.40
2018-09-21T06:20:36.920Z,21.30
2018-09-21T06:23:07.437Z,21.40
2018-09-21T06:25:38.120Z,21.40
2018-09-21T06:28:08.544Z,21.40
2018-09-21T06:30:39.272Z,21.40
2018-09-21T06:33:09.677Z,21.50
2018-09-21T06:35:40.345Z,21.40
2018-09-21T06:38:10.740Z,21.50
2018-09-21T06:40:41.443Z,21.50
2018-09-21T06:43:12.197Z,21.50
2018-09-21T06:45:42.897Z,21.50
2018-09-21T06:48:13.618Z,21.60
2018-09-21T06:50:44.061Z,21.60
2018-09-21T06:53:14.978Z,21.50
2018-09-21T06:55:45.362Z,21.50
2018-09-21T06:58:15.776Z,21.50
2018-09-21T07:00:46.365Z,21.60
2018-09-21T07:03:16.753Z,21.50
2018-09-21T07:05:47.148Z,21.50
2018-09-21T07:08:17.555Z,21.50
2018-09-21T07:10:48.244Z,21.50
2018-09-21T07:13:18.640Z,21.50
2018-09-21T07:15:49.067Z,21.50
2018-09-21T07:18:19.633Z,21.40
2018-09-21T07:20:50.045Z,21.50
2018-09-21T07:23:20.452Z,21.50
2018-09-21T07:25:50.820Z,21.40
2018-09-21T07:28:21.284Z,21.40
2018-09-21T07:30:51.676Z,21.40
2018-09-21T07:33:22.268Z,21.40
2018-09-21T07:35:52.717Z,21.40
2018-09-21T07:38:23.156Z,21.40
2018-09-21T07:40:53.524Z,21.40
2018-09-21T07:43:23.921Z,21.40
2018-09-21T07:45:55.325Z,21.40
2018-09-21T07:48:26.725Z,21.40
2018-09-21T07:50:57.305Z,21.40
2018-09-21T07:53:27.928Z,21.40
2018-09-21T07:55:58.340Z,21.30
2018-09-21T07:58:28.724Z,21.30
2018-09-21T08:00:59.121Z,21.40
2018-09-21T08:03:29.793Z,21.40
2018-09-21T08:06:00.254Z,21.30
2018-09-21T08:08:30.661Z,21.30
2018-09-21T08:11:01.059Z,21.30
2018-09-21T08:13:31.465Z,21.30
2018-09-21T08:16:01.868Z,21.30
2018-09-21T08:18:32.265Z,21.20
2018-09-21T08:21:02.853Z,21.20
2018-09-21T08:23:33.223Z,21.20
2018-09-21T08:26:03.631Z,21.30
2018-09-21T08:28:34.033Z,21.30
2018-09-21T08:31:04.723Z,21.40
2018-09-21T08:33:35.093Z,21.50
2018-09-21T08:36:05.536Z,21.50
2018-09-21T08:38:36.132Z,21.60
2018-09-21T08:41:06.712Z,21.60
2018-09-21T08:43:37.098Z,21.70
2018-09-21T08:46:07.697Z,21.70
2018-09-21T08:48:38.068Z,21.70
2018-09-21T08:51:08.460Z,21.70
2018-09-21T08:53:38.869Z,21.70
2018-09-21T08:56:09.269Z,21.80
2018-09-21T08:58:39.658Z,21.80
2018-09-21T09:01:10.085Z,21.80
2018-09-21T09:03:40.458Z,21.70
2018-09-21T09:06:10.864Z,21.80
2018-09-21T09:08:41.232Z,21.80
2018-09-21T09:11:11.622Z,21.70
2018-09-21T09:13:41.994Z,21.80
2018-09-21T09:16:12.412Z,21.80
2018-09-21T09:18:42.786Z,21.80
2018-09-21T09:21:13.501Z,21.90
2018-09-21T09:23:43.870Z,21.80
2018-09-21T09:26:14.269Z,21.90
2018-09-21T09:28:44.700Z,21.90
2018-09-21T09:31:15.064Z,21.90
2018-09-21T09:33:45.460Z,21.70
2018-09-21T09:36:15.860Z,21.40
2018-09-21T09:38:46.265Z,21.00
2018-09-21T09:41:16.628Z,20.60
2018-09-21T09:43:47.016Z,20.30
2018-09-21T09:46:17.405Z,19.90
2018-09-21T09:48:48.086Z,19.50
2018-09-21T09:51:18.914Z,19.10
2018-09-21T09:53:49.564Z,18.80
2018-09-21T09:56:20.240Z,18.50
2018-09-21T09:58:50.888Z,18.20
2018-09-21T10:01:21.593Z,17.90
2018-09-21T10:03:52.301Z,17.70
2018-09-21T10:06:23.141Z,17.50
2018-09-21T10:08:53.805Z,17.30
2018-09-21T10:11:24.509Z,17.10
2018-09-21T10:13:55.177Z,17.00
2018-09-21T10:16:25.891Z,16.80
2018-09-21T10:18:56.740Z,16.70
2018-09-21T10:21:27.442Z,16.60
2018-09-21T10:23:58.136Z,16.50
2018-09-21T10:26:29.031Z,16.40
2018-09-21T10:28:59.698Z,16.30
2018-09-21T10:31:30.413Z,16.20
2018-09-21T10:34:01.306Z,16.10
2018-09-21T10:36:31.990Z,16.00
2018-09-21T10:39:02.719Z,16.00
2018-09-21T10:41:33.600Z,16.00
2018-09-21T10:44:04.298Z,16.00
2018-09-21T10:46:35.095Z,16.00
2018-09-21T10:49:05.814Z,16.10
2018-09-21T10:51:36.572Z,16.10
2018-09-21T10:54:07.847Z,16.10
2018-09-21T10:56:38.539Z,16.10
2018-09-21T10:59:09.224Z,16.10
2018-09-21T11:01:39.880Z,16.10
2018-09-21T11:04:10.572Z,16.20
2018-09-21T11:06:41.231Z,16.20
2018-09-21T11:09:12.231Z,16.20
2018-09-21T11:11:42.922Z,16.20
2018-09-21T11:14:13.592Z,16.20
2018-09-21T11:16:44.288Z,16.20
2018-09-21T11:19:14.948Z,16.20
2018-09-21T11:21:45.628Z,16.30
2018-09-21T11:24:16.301Z,16.30
2018-09-21T11:26:47.006Z,16.30
2018-09-21T11:29:17.737Z,16.40
2018-09-21T11:31:48.452Z,16.40
2018-09-21T11:34:19.120Z,16.50
2018-09-21T11:36:49.812Z,16.50
2018-09-21T11:39:21.272Z,16.60
2018-09-21T11:41:51.928Z,16.60
2018-09-21T11:44:22.624Z,16.70
2018-09-21T11:46:53.459Z,16.70
2018-09-21T11:49:24.195Z,16.80
2018-09-21T11:51:54.885Z,16.80
2018-09-21T11:54:25.558Z,16.90
2018-09-21T11:56:56.268Z,17.00
2018-09-21T11:59:27.065Z,17.00
2018-09-21T12:01:57.815Z,17.10
2018-09-21T12:04:35.169Z,17.20
2018-09-21T12:07:05.905Z,17.30
2018-09-21T12:09:36.568Z,17.40
2018-09-21T12:12:07.264Z,17.40
2018-09-21T12:14:37.935Z,17.50
2018-09-21T12:17:08.690Z,17.60
2018-09-21T12:19:39.506Z,17.70
2018-09-21T12:22:10.229Z,17.80
2018-09-21T12:24:41.055Z,17.90
2018-09-21T12:27:11.792Z,18.00
2018-09-21T12:29:42.500Z,18.10
2018-09-21T12:32:13.227Z,18.20
2018-09-21T12:34:43.900Z,18.20
2018-09-21T12:37:14.609Z,18.30
2018-09-21T12:39:45.290Z,18.30
2018-09-21T12:42:15.965Z,18.30
2018-09-21T12:44:46.734Z,18.30
2018-09-21T12:47:17.526Z,18.30
2018-09-21T12:49:48.192Z,18.10
2018-09-21T12:52:19.305Z,17.90
2018-09-21T12:54:50.004Z,17.70
2018-09-21T12:57:20.687Z,17.70
2018-09-21T12:59:51.400Z,17.60
2018-09-21T13:02:22.053Z,17.60
2018-09-21T13:04:52.956Z,17.70
2018-09-21T13:07:23.681Z,17.70
2018-09-21T13:09:54.349Z,17.70
2018-09-21T13:12:25.001Z,17.70
2018-09-21T13:14:55.684Z,17.70
2018-09-21T13:17:26.389Z,17.60
2018-09-21T13:19:57.085Z,17.60
2018-09-21T13:22:27.754Z,17.60
2018-09-21T13:24:58.483Z,17.60
2018-09-21T13:27:29.345Z,17.60
2018-09-21T13:30:00.031Z,17.60
2018-09-21T13:32:30.680Z,17.60
2018-09-21T13:35:01.371Z,17.60
2018-09-21T13:37:32.014Z,17.60
2018-09-21T13:40:03.392Z,17.60
2018-09-21T13:42:34.071Z,17.60
2018-09-21T13:45:05.320Z,17.60
2018-09-21T13:47:35.965Z,17.60
2018-09-21T13:50:07.350Z,17.60
2018-09-21T13:52:38.190Z,17.60
2018-09-21T13:55:09.001Z,17.50
2018-09-21T13:57:39.639Z,17.60
2018-09-21T14:00:11.737Z,17.50
2018-09-21T14:02:43.050Z,17.50
2018-09-21T14:05:13.753Z,17.50
2018-09-21T14:07:44.404Z,17.40
2018-09-21T14:10:15.075Z,17.40
2018-09-21T14:12:45.724Z,17.40
2018-09-21T14:15:16.408Z,17.40
2018-09-21T14:17:47.444Z,17.50
2018-09-21T14:20:18.104Z,17.50
2018-09-21T14:22:48.813Z,17.50
2018-09-21T14:25:19.512Z,17.50
2018-09-21T14:27:50.184Z,17.50
2018-09-21T14:30:20.841Z,17.50
2018-09-21T14:32:51.553Z,17.50
2018-09-21T14:35:22.237Z,17.50
2018-09-21T14:37:52.919Z,17.50
2018-09-21T14:40:23.767Z,17.50
2018-09-21T14:42:54.444Z,17.50
2018-09-21T14:45:25.474Z,17.50
2018-09-21T14:47:56.176Z,17.50
2018-09-21T14:50:27.061Z,17.50
2018-09-21T14:52:57.944Z,17.50
2018-09-21T14:55:28.616Z,17.50
2018-09-21T14:57:59.292Z,17.50
2018-09-21T15:00:29.977Z,17.50
2018-09-21T15:03:00.674Z,17.50
2018-09-21T15:05:31.331Z,17.50
2018-09-21T15:08:02.010Z,17.50
2018-09-21T15:10:32.663Z,17.50
2018-09-21T15:13:03.353Z,17.50
2018-09-21T15:15:34.045Z,17.50
2018-09-21T15:18:04.714Z,17.50
2018-09-21T15:20:35.397Z,17.40
2018-09-21T15:23:06.220Z,17.40
2018-09-21T15:25:36.956Z,17.40
2018-09-21T15:28:07.993Z,17.40
2018-09-21T15:30:38.687Z,17.40
2018-09-21T15:33:09.388Z,17.40
2018-09-21T15:35:40.073Z,17.30
2018-09-21T15:38:10.712Z,17.40
2018-09-21T15:40:41.408Z,17.50
2018-09-21T15:43:12.110Z,17.50
2018-09-21T15:45:42.937Z,17.50
2018-09-21T15:48:13.586Z,17.50
2018-09-21T15:50:44.276Z,17.60
2018-09-21T15:53:14.940Z,17.60
2018-09-21T15:55:45.617Z,17.60
2018-09-21T15:58:16.284Z,17.50
2018-09-21T16:00:46.963Z,17.50
2018-09-21T16:03:17.600Z,17.50
2018-09-21T16:05:48.318Z,17.50
2018-09-21T16:08:19.164Z,17.40
2018-09-21T16:10:50.348Z,17.40
2018-09-21T16:13:21.188Z,17.30
2018-09-21T16:15:52.023Z,17.30
2018-09-21T16:18:22.689Z,17.20
2018-09-21T16:20:53.518Z,17.20
2018-09-21T16:23:24.177Z,17.20
2018-09-21T16:25:54.862Z,17.10
2018-09-21T16:28:25.529Z,17.10
2018-09-21T16:30:56.232Z,17.10
2018-09-21T16:33:26.901Z,17.10
2018-09-21T16:35:57.625Z,17.00
2018-09-21T16:38:28.447Z,17.00
2018-09-21T16:40:59.218Z,16.90
2018-09-21T16:43:29.869Z,16.90
2018-09-21T16:46:00.554Z,16.80
2018-09-21T16:48:31.237Z,16.80
2018-09-21T16:51:02.119Z,16.80
2018-09-21T16:53:32.985Z,16.80
2018-09-21T16:56:03.988Z,16.70
2018-09-21T16:58:34.681Z,16.70
2018-09-21T17:01:05.365Z,16.70
2018-09-21T17:03:36.044Z,16.70
2018-09-21T17:06:06.740Z,16.70
2018-09-21T17:08:37.424Z,16.70
2018-09-21T17:11:08.088Z,16.60
2018-09-21T17:13:38.981Z,16.60
2018-09-21T17:16:09.652Z,16.60
2018-09-21T17:18:40.448Z,16.50
2018-09-21T17:21:11.302Z,16.50
2018-09-21T17:23:42.148Z,16.50
2018-09-21T17:26:12.857Z,16.50
2018-09-21T17:28:43.524Z,16.50
2018-09-21T17:31:14.252Z,16.40
2018-09-21T17:33:44.919Z,16.40
2018-09-21T17:36:15.595Z,16.40
2018-09-21T17:38:46.241Z,16.40
2018-09-21T17:41:16.918Z,16.30
2018-09-21T17:43:47.568Z,16.20
2018-09-21T17:46:18.264Z,16.20
2018-09-21T17:48:48.938Z,16.20
2018-09-21T17:51:19.637Z,16.20
2018-09-21T17:53:50.301Z,16.10
2018-09-21T17:56:20.981Z,16.10
2018-09-21T17:58:51.665Z,16.00
2018-09-21T18:01:22.360Z,16.00
2018-09-21T18:03:54.011Z,16.00
2018-09-21T18:06:24.630Z,15.90
2018-09-21T18:08:55.428Z,15.90
2018-09-21T18:11:26.088Z,15.90
2018-09-21T18:13:57.698Z,15.90
2018-09-21T18:16:29.108Z,15.80
2018-09-21T18:19:00.148Z,15.70
2018-09-21T18:21:30.981Z,15.70
2018-09-21T18:24:01.641Z,15.70
2018-09-21T18:26:32.331Z,15.70
2018-09-21T18:29:02.994Z,15.70
2018-09-21T18:31:34.428Z,15.70
2018-09-21T18:34:05.258Z,15.70
2018-09-21T18:36:35.948Z,15.60
2018-09-21T18:39:07.152Z,15.60
2018-09-21T18:41:37.845Z,15.60
2018-09-21T18:44:08.498Z,15.60
2018-09-21T18:46:39.180Z,15.60
2018-09-21T18:49:09.855Z,15.60
2018-09-21T18:51:40.525Z,15.60
2018-09-21T18:54:11.199Z,15.60
2018-09-21T18:56:41.868Z,15.50
2018-09-21T18:59:12.548Z,15.50
2018-09-21T19:01:43.216Z,15.50
2018-09-21T19:04:13.919Z,15.50
2018-09-21T19:06:44.568Z,15.50
2018-09-21T19:09:15.284Z,15.50
2018-09-21T19:11:45.942Z,15.50
2018-09-21T19:14:16.661Z,15.40
2018-09-21T19:16:47.317Z,15.40
2018-09-21T19:19:18.001Z,15.40
2018-09-21T19:21:48.651Z,15.40
2018-09-21T19:24:19.324Z,15.40
2018-09-21T19:26:49.985Z,15.30
2018-09-21T19:29:20.861Z,15.30
2018-09-21T19:31:51.560Z,15.30
2018-09-21T19:34:22.252Z,15.30
2018-09-21T19:36:52.891Z,15.30
2018-09-21T19:39:23.574Z,15.30
2018-09-21T19:41:54.281Z,15.20
2018-09-21T19:44:24.965Z,15.20
2018-09-21T19:46:55.653Z,15.20
2018-09-21T19:49:26.314Z,15.20
2018-09-21T19:51:56.997Z,15.20
2018-09-21T19:54:27.735Z,15.10
2018-09-21T19:56:58.624Z,15.10
2018-09-21T19:59:29.301Z,15.10
2018-09-21T20:02:00.042Z,15.10
2018-09-21T20:04:30.898Z,15.10
2018-09-21T20:07:01.593Z,15.00
2018-09-21T20:09:32.312Z,15.10
2018-09-21T20:12:03.022Z,15.00
2018-09-21T20:14:33.716Z,15.10
2018-09-21T20:17:04.700Z,15.00
2018-09-21T20:19:35.712Z,15.00
2018-09-21T20:22:07.878Z,15.00
2018-09-21T20:24:38.581Z,15.00
2018-09-21T20:27:09.240Z,15.00
2018-09-21T20:29:39.984Z,14.90
2018-09-21T20:32:16.110Z,14.90
2018-09-21T20:34:46.983Z,14.90
2018-09-21T20:37:17.706Z,14.90
2018-09-21T20:39:48.576Z,14.80
2018-09-21T20:42:19.248Z,14.80
2018-09-21T20:44:50.001Z,14.90
2018-09-21T20:47:20.801Z,14.90
2018-09-21T20:49:51.492Z,14.90
2018-09-21T20:52:22.361Z,14.80
2018-09-21T20:54:53.064Z,14.80
2018-09-21T20:57:23.727Z,14.80
2018-09-21T20:59:54.469Z,14.80
2018-09-21T21:02:25.138Z,14.80
2018-09-21T21:04:56.183Z,14.80
2018-09-21T21:07:26.855Z,14.80
2018-09-21T21:09:57.550Z,14.80
2018-09-21T21:12:28.207Z,14.70
2018-09-21T21:14:59.382Z,14.70
2018-09-21T21:17:30.241Z,14.70
2018-09-21T21:20:00.929Z,14.70
2018-09-21T21:22:31.591Z,14.70
2018-09-21T21:25:02.285Z,14.60
2018-09-21T21:27:32.999Z,14.60
2018-09-21T21:30:03.750Z,14.60
2018-09-21T21:32:34.444Z,14.60
2018-09-21T21:35:05.489Z,14.60
2018-09-21T21:37:36.435Z,14.60
2018-09-21T21:40:07.116Z,14.60
2018-09-21T21:42:37.812Z,14.50
2018-09-21T21:45:08.491Z,14.50
2018-09-21T21:47:39.168Z,14.60
2018-09-21T21:50:09.907Z,14.60
2018-09-21T21:52:40.900Z,14.50
2018-09-21T21:55:11.585Z,14.50
2018-09-21T21:57:42.284Z,14.50
2018-09-21T22:00:13.341Z,14.50
2018-09-21T22:02:44.049Z,14.50
2018-09-21T22:05:14.745Z,14.50
2018-09-21T22:07:45.413Z,14.40
2018-09-21T22:10:16.321Z,14.40
2018-09-21T22:12:52.384Z,14.40
2018-09-21T22:15:23.473Z,14.30
2018-09-21T22:17:54.128Z,14.30
2018-09-21T22:20:24.829Z,14.30
2018-09-21T22:22:55.488Z,14.30
2018-09-21T22:25:26.408Z,14.30
2018-09-21T22:27:57.060Z,14.30
2018-09-21T22:30:27.976Z,14.30
2018-09-21T22:32:58.665Z,14.30
2018-09-21T22:35:29.345Z,14.30
2018-09-21T22:38:00.008Z,14.30
2018-09-21T22:40:30.708Z,14.30
2018-09-21T22:43:01.369Z,14.20
2018-09-21T22:45:32.082Z,14.20
2018-09-21T22:48:02.794Z,14.20
2018-09-21T22:50:33.453Z,14.20
2018-09-21T22:53:04.144Z,14.20
2018-09-21T22:55:34.795Z,14.20
2018-09-21T22:58:05.508Z,14.20
2018-09-21T23:00:36.174Z,14.20
2018-09-21T23:03:06.900Z,14.20
2018-09-21T23:05:37.554Z,14.20
2018-09-21T23:08:08.280Z,14.20
2018-09-21T23:10:38.948Z,14.20
2018-09-21T23:13:09.650Z,14.20
2018-09-21T23:15:40.345Z,14.10
2018-09-21T23:18:11.040Z,14.10
2018-09-21T23:20:41.733Z,14.10
2018-09-21T23:23:12.488Z,14.00
2018-09-21T23:25:43.194Z,14.00
2018-09-21T23:28:13.880Z,14.00
2018-09-21T23:30:44.583Z,14.00
2018-09-21T23:33:15.284Z,13.90
2018-09-21T23:35:45.969Z,13.90
2018-09-21T23:38:16.688Z,13.90
2018-09-21T23:40:47.365Z,13.90
2018-09-21T23:43:18.091Z,13.90
2018-09-21T23:45:48.976Z,13.90
2018-09-21T23:48:19.645Z,13.80
2018-09-21T23:50:50.352Z,13.80
2018-09-21T23:53:21.231Z,13.90
2018-09-21T23:55:51.926Z,13.80
2018-09-21T23:58:22.724Z,13.80
